Time;durP1;ratioP1;P1;durP2;ratioP2;P2;SDS_P1;SDS_P2;PMS_P1;PMS_P2;Temp;Humidity;BMP_temperature;BMP_pressure;BME280_temperature;BME280_humidity;BME280_pressure;Samples;Min_cycle;Max_cycle;Signal;HPM_P1;HPM_P2
2024/02/15 00:02:30;;;;;;;;;;;10.40;94.30;;;;;;4965470;28;19937;-58
2024/02/15 00:05:04;;;;;;;;;;;10.40;94.30;;;;;;4967353;28;19977;-59
2024/02/15 00:07:39;;;;;;;;;;;10.40;94.20;;;;;;4962028;28;19956;-60
2024/02/15 00:10:12;;;;;;;;;;;10.40;94.30;;;;;;4970504;28;20341;-59
2024/02/15 00:12:40;;;;;;;;;;;10.40;94.20;;;;;;4970801;28;19926;-60
2024/02/15 00:15:13;;;;;;;;;;;10.50;94.30;;;;;;4968266;28;20021;-60
2024/02/15 00:17:46;;;;;;;;;;;10.40;94.30;;;;;;4968858;28;19961;-60
2024/02/15 00:20:20;;;;;;;;;;;10.50;94.30;;;;;;4969069;28;19930;-60
2024/02/15 00:22:53;;;;;;;;;;;10.40;94.20;;;;;;4966359;28;19926;-61
2024/02/15 00:25:26;;;;;;;;;;;10.50;94.30;;;;;;4966343;28;20032;-73
2024/02/15 00:28:01;;;;;;;;;;;10.50;94.30;;;;;;4955824;28;20062;-71
2024/02/15 00:30:36;;;;;;;;;;;10.50;94.20;;;;;;4968358;28;19932;-71
2024/02/15 00:33:09;;;;;;;;;;;10.50;94.20;;;;;;4967746;28;19930;-72
2024/02/15 00:35:43;;;;;;;;;;;10.40;94.10;;;;;;4966695;28;19930;-71
2024/02/15 00:38:10;;;;;;;;;;;10.50;94.30;;;;;;4963502;28;19934;-74
2024/02/15 00:40:43;;;;;;;;;;;10.50;94.30;;;;;;4966009;28;20021;-73
2024/02/15 00:43:17;;;;;;;;;;;10.40;94.20;;;;;;4965137;28;20464;-73
2024/02/15 00:45:51;;;;;;;;;;;10.50;94.30;;;;;;4964050;28;19981;-73
2024/02/15 00:48:28;;;;;;;;;;;10.50;94.30;;;;;;4963636;28;19926;-73
2024/02/15 00:51:36;;;;;;;;;;;10.50;94.40;;;;;;4960458;28;20008;-74
2024/02/15 00:54:09;;;;;;;;;;;10.50;94.30;;;;;;4952604;28;20538;-72
2024/02/15 00:56:42;;;;;;;;;;;10.50;94.40;;;;;;4962718;28;20419;-71
2024/02/15 00:59:16;;;;;;;;;;;10.50;94.30;;;;;;4967357;28;19977;-73
2024/02/15 01:01:50;;;;;;;;;;;10.50;94.30;;;;;;4965490;28;19933;-73
2024/02/15 01:04:23;;;;;;;;;;;10.50;94.30;;;;;;4966740;28;20028;-74
2024/02/15 01:06:56;;;;;;;;;;;10.50;94.40;;;;;;4966175;28;19949;-73
2024/02/15 01:09:30;;;;;;;;;;;10.50;94.30;;;;;;4965832;28;19926;-73
2024/02/15 01:12:03;;;;;;;;;;;10.50;94.30;;;;;;4965601;28;19981;-73
2024/02/15 01:14:39;;;;;;;;;;;10.50;94.30;;;;;;4963537;28;20385;-73
2024/02/15 01:17:12;;;;;;;;;;;10.50;94.30;;;;;;4968857;28;20411;-72
2024/02/15 01:19:45;;;;;;;;;;;10.50;94.30;;;;;;4968299;28;19926;-73
2024/02/15 01:22:18;;;;;;;;;;;10.40;94.20;;;;;;4968433;28;20433;-74
2024/02/15 01:24:51;;;;;;;;;;;10.50;94.30;;;;;;4969648;28;19961;-72
2024/02/15 01:27:24;;;;;;;;;;;10.50;94.30;;;;;;4968502;28;20024;-71
2024/02/15 01:29:58;;;;;;;;;;;10.50;94.30;;;;;;4969674;28;19937;-71
2024/02/15 01:32:31;;;;;;;;;;;10.40;94.20;;;;;;4968397;28;19930;-71
2024/02/15 01:35:06;;;;;;;;;;;10.40;94.20;;;;;;4969080;28;20000;-61
2024/02/15 01:37:39;;;;;;;;;;;10.50;94.30;;;;;;4968847;28;19926;-62
2024/02/15 01:40:12;;;;;;;;;;;10.50;94.30;;;;;;4967631;28;19930;-61
2024/02/15 01:42:46;;;;;;;;;;;10.50;94.30;;;;;;4968991;28;20001;-62
2024/02/15 01:45:21;;;;;;;;;;;10.40;94.30;;;;;;4966674;28;21724;-60
2024/02/15 01:47:55;;;;;;;;;;;10.50;94.30;;;;;;4967720;28;19934;-61
2024/02/15 01:50:28;;;;;;;;;;;10.50;94.20;;;;;;4971432;28;20278;-61
2024/02/15 01:53:02;;;;;;;;;;;10.40;94.10;;;;;;4981019;28;20312;-60
2024/02/15 01:55:35;;;;;;;;;;;10.40;94.00;;;;;;4972423;28;19932;-62
2024/02/15 01:58:08;;;;;;;;;;;10.50;94.10;;;;;;4970262;28;20016;-61
2024/02/15 02:00:43;;;;;;;;;;;10.50;94.10;;;;;;4961867;28;19926;-61
2024/02/15 02:03:17;;;;;;;;;;;10.40;94.00;;;;;;4966025;28;20393;-60
2024/02/15 02:05:50;;;;;;;;;;;10.50;94.10;;;;;;4970620;28;19933;-62
2024/02/15 02:08:23;;;;;;;;;;;10.40;94.00;;;;;;4969761;28;19926;-60
2024/02/15 02:10:57;;;;;;;;;;;10.50;94.00;;;;;;4971619;28;19930;-61
2024/02/15 02:13:24;;;;;;;;;;;10.40;94.00;;;;;;4971765;28;20294;-61
2024/02/15 02:15:59;;;;;;;;;;;10.40;94.00;;;;;;4971994;28;19954;-60
2024/02/15 02:18:32;;;;;;;;;;;10.50;94.00;;;;;;4970727;28;19952;-60
2024/02/15 02:20:59;;;;;;;;;;;10.40;94.00;;;;;;4969863;28;19942;-61
2024/02/15 02:23:39;;;;;;;;;;;10.40;94.00;;;;;;4968560;28;20424;-60
2024/02/15 02:26:14;;;;;;;;;;;10.40;94.00;;;;;;4965871;28;20020;-61
2024/02/15 02:28:47;;;;;;;;;;;10.40;93.90;;;;;;4971408;28;20018;-60
2024/02/15 02:31:21;;;;;;;;;;;10.40;93.90;;;;;;4968964;28;19966;-60
2024/02/15 02:33:57;;;;;;;;;;;10.40;94.00;;;;;;4970344;28;19930;-61
2024/02/15 02:36:31;;;;;;;;;;;10.50;94.00;;;;;;4970259;28;19926;-61
2024/02/15 02:39:04;;;;;;;;;;;10.40;93.90;;;;;;4971079;28;19977;-61
2024/02/15 02:41:39;;;;;;;;;;;10.40;93.90;;;;;;4968714;28;19937;-61
2024/02/15 02:44:12;;;;;;;;;;;10.40;93.80;;;;;;4968376;28;19961;-61
2024/02/15 02:46:45;;;;;;;;;;;10.40;93.80;;;;;;4970977;28;19960;-64
2024/02/15 02:49:18;;;;;;;;;;;10.40;93.90;;;;;;4970019;28;19968;-62
2024/02/15 02:51:51;;;;;;;;;;;10.40;93.90;;;;;;4972369;28;19934;-61
2024/02/15 02:54:24;;;;;;;;;;;10.40;93.80;;;;;;4970174;28;19926;-61
2024/02/15 02:56:59;;;;;;;;;;;10.40;93.90;;;;;;4969960;28;19933;-61
2024/02/15 02:59:33;;;;;;;;;;;10.40;93.90;;;;;;4966067;28;19965;-61
2024/02/15 03:02:07;;;;;;;;;;;10.40;93.80;;;;;;4968178;28;19981;-62
2024/02/15 03:04:41;;;;;;;;;;;10.40;93.90;;;;;;4961743;28;19930;-61
2024/02/15 03:07:17;;;;;;;;;;;10.40;93.80;;;;;;4970412;28;20015;-62
2024/02/15 03:09:51;;;;;;;;;;;10.40;93.80;;;;;;4972271;28;19929;-62
2024/02/15 03:12:26;;;;;;;;;;;10.40;93.80;;;;;;4969044;28;19937;-61
2024/02/15 03:14:59;;;;;;;;;;;10.40;93.90;;;;;;4970283;28;19985;-62
2024/02/15 03:17:32;;;;;;;;;;;10.40;93.90;;;;;;4967817;28;19929;-61
2024/02/15 03:20:10;;;;;;;;;;;10.40;93.80;;;;;;4971589;28;19930;-64
2024/02/15 03:22:43;;;;;;;;;;;10.40;93.80;;;;;;4969399;28;19930;-60
2024/02/15 03:25:16;;;;;;;;;;;10.30;93.90;;;;;;4968910;28;19941;-63
2024/02/15 03:27:52;;;;;;;;;;;10.30;93.90;;;;;;4970113;28;19973;-62
2024/02/15 03:30:26;;;;;;;;;;;10.30;93.80;;;;;;4966892;28;20644;-60
2024/02/15 03:32:59;;;;;;;;;;;10.30;93.90;;;;;;4968813;28;20298;-61
2024/02/15 03:35:32;;;;;;;;;;;10.30;93.90;;;;;;4969874;28;20016;-61
2024/02/15 03:38:06;;;;;;;;;;;10.30;93.90;;;;;;4966227;28;20119;-60
2024/02/15 03:40:40;;;;;;;;;;;10.30;93.90;;;;;;4971654;28;20014;-62
2024/02/15 03:43:14;;;;;;;;;;;10.30;93.80;;;;;;4964566;28;19934;-61
2024/02/15 03:45:48;;;;;;;;;;;10.30;93.90;;;;;;4968272;28;20023;-62
2024/02/15 03:48:21;;;;;;;;;;;10.40;93.80;;;;;;4967663;28;19953;-60
2024/02/15 03:50:54;;;;;;;;;;;10.30;93.80;;;;;;4971473;28;20369;-61
2024/02/15 03:53:31;;;;;;;;;;;10.40;93.90;;;;;;4970756;28;19933;-61
2024/02/15 03:56:04;;;;;;;;;;;10.30;93.80;;;;;;4961094;28;19927;-60
2024/02/15 03:58:40;;;;;;;;;;;10.40;93.90;;;;;;4966468;28;19934;-59
2024/02/15 04:01:15;;;;;;;;;;;10.30;93.70;;;;;;4968496;28;19934;-60
2024/02/15 04:03:49;;;;;;;;;;;10.40;93.80;;;;;;4968357;28;19926;-59
2024/02/15 04:06:25;;;;;;;;;;;10.40;93.70;;;;;;4969381;28;19926;-59
2024/02/15 04:08:58;;;;;;;;;;;10.30;93.70;;;;;;4970761;28;20381;-60
2024/02/15 04:11:33;;;;;;;;;;;10.40;93.80;;;;;;4969529;28;19926;-59
2024/02/15 04:14:07;;;;;;;;;;;10.40;93.90;;;;;;4965862;28;20540;-59
2024/02/15 04:16:41;;;;;;;;;;;10.40;93.80;;;;;;4965283;28;19937;-59
2024/02/15 04:19:14;;;;;;;;;;;10.30;93.90;;;;;;4969180;28;20025;-59
2024/02/15 04:21:47;;;;;;;;;;;10.30;93.90;;;;;;4966184;28;19926;-60
2024/02/15 04:24:21;;;;;;;;;;;10.30;94.00;;;;;;4969794;28;19936;-59
2024/02/15 04:26:54;;;;;;;;;;;10.30;94.00;;;;;;4967577;28;19930;-59
2024/02/15 04:29:28;;;;;;;;;;;10.30;93.90;;;;;;4969840;28;20457;-61
2024/02/15 04:32:03;;;;;;;;;;;10.30;93.90;;;;;;4966027;28;19937;-59
2024/02/15 04:34:36;;;;;;;;;;;10.30;93.90;;;;;;4969206;28;20024;-59
2024/02/15 04:37:16;;;;;;;;;;;10.30;93.80;;;;;;4967862;28;19929;-59
2024/02/15 04:39:49;;;;;;;;;;;10.30;93.90;;;;;;4969179;28;19962;-59
2024/02/15 04:42:25;;;;;;;;;;;10.30;93.80;;;;;;4967353;28;19925;-59
2024/02/15 04:44:59;;;;;;;;;;;10.30;93.90;;;;;;4966847;28;19952;-59
2024/02/15 04:47:33;;;;;;;;;;;10.30;93.90;;;;;;4965834;28;19941;-59
2024/02/15 04:53:17;;;;;;;;;;;10.20;93.80;;;;;;4962102;28;19937;-62
2024/02/15 04:55:50;;;;;;;;;;;10.30;93.80;;;;;;4967574;28;19933;-60
2024/02/15 04:58:24;;;;;;;;;;;10.20;93.80;;;;;;4967429;28;19926;-59
2024/02/15 05:00:59;;;;;;;;;;;10.20;93.90;;;;;;4968611;28;20456;-59
2024/02/15 05:03:34;;;;;;;;;;;10.20;93.90;;;;;;4964731;28;19984;-59
2024/02/15 05:06:08;;;;;;;;;;;10.20;93.90;;;;;;4969656;28;19962;-60
2024/02/15 05:08:43;;;;;;;;;;;10.20;93.90;;;;;;4969220;28;19948;-61
2024/02/15 05:11:17;;;;;;;;;;;10.20;93.90;;;;;;4967173;28;20017;-59
2024/02/15 05:13:50;;;;;;;;;;;10.20;93.80;;;;;;4967746;28;19938;-61
2024/02/15 05:16:25;;;;;;;;;;;10.20;93.80;;;;;;4966742;28;19937;-59
2024/02/15 05:18:51;;;;;;;;;;;10.20;93.80;;;;;;4967963;28;19941;-59
2024/02/15 05:21:24;;;;;;;;;;;10.20;93.80;;;;;;4967529;28;19977;-59
2024/02/15 05:23:57;;;;;;;;;;;10.20;93.80;;;;;;4969649;28;19934;-60
2024/02/15 05:26:30;;;;;;;;;;;10.20;93.80;;;;;;4972232;28;20008;-60
2024/02/15 05:29:04;;;;;;;;;;;10.10;93.80;;;;;;4974339;28;19941;-60
2024/02/15 05:31:39;;;;;;;;;;;10.10;93.90;;;;;;4968732;28;19940;-59
2024/02/15 05:34:13;;;;;;;;;;;10.10;93.80;;;;;;4971910;28;20017;-59
2024/02/15 05:36:48;;;;;;;;;;;10.10;93.80;;;;;;4973021;28;19930;-58
2024/02/15 05:39:22;;;;;;;;;;;10.20;93.80;;;;;;4974607;28;19930;-60
2024/02/15 05:42:00;;;;;;;;;;;10.10;93.80;;;;;;4973502;28;19930;-60
2024/02/15 05:44:34;;;;;;;;;;;10.10;93.80;;;;;;4973847;28;19934;-60
2024/02/15 05:47:09;;;;;;;;;;;10.10;93.80;;;;;;4969594;28;19926;-59
2024/02/15 05:49:43;;;;;;;;;;;10.10;93.80;;;;;;4974481;28;20411;-60
2024/02/15 05:52:18;;;;;;;;;;;10.20;93.80;;;;;;4974174;28;19930;-60
2024/02/15 05:54:51;;;;;;;;;;;10.20;93.80;;;;;;4973175;28;19964;-59
2024/02/15 05:57:24;;;;;;;;;;;10.10;93.80;;;;;;4973587;28;19934;-59
2024/02/15 06:00:01;;;;;;;;;;;10.10;93.80;;;;;;4974484;28;19999;-60
2024/02/15 06:02:36;;;;;;;;;;;10.10;93.70;;;;;;4975439;28;19933;-59
2024/02/15 06:05:10;;;;;;;;;;;10.10;93.70;;;;;;4971300;28;20559;-59
2024/02/15 06:07:45;;;;;;;;;;;10.10;93.70;;;;;;4974371;28;19934;-59
2024/02/15 06:10:18;;;;;;;;;;;10.10;93.60;;;;;;4973406;28;19937;-60
2024/02/15 06:12:51;;;;;;;;;;;10.10;93.70;;;;;;4975299;28;20488;-62
2024/02/15 06:15:25;;;;;;;;;;;10.10;93.70;;;;;;4972987;28;19934;-62
2024/02/15 06:18:00;;;;;;;;;;;10.10;93.70;;;;;;4976051;28;20385;-63
2024/02/15 06:20:35;;;;;;;;;;;10.10;93.60;;;;;;4975189;28;19930;-62
2024/02/15 06:23:08;;;;;;;;;;;10.10;93.70;;;;;;4973668;28;19926;-62
2024/02/15 06:25:42;;;;;;;;;;;10.10;93.70;;;;;;4972279;28;19936;-62
2024/02/15 06:39:38;;;;;;;;;;;10.10;93.70;;;;;;4970091;28;20266;-62
2024/02/15 06:39:48;;;;;;;;;;;10.10;93.70;;;;;;4970896;28;20420;-61
2024/02/15 06:42:56;;;;;;;;;;;10.10;93.70;;;;;;4969650;28;19937;-61
2024/02/15 06:45:31;;;;;;;;;;;10.10;93.70;;;;;;4965392;28;19933;-62
2024/02/15 06:48:07;;;;;;;;;;;10.10;93.70;;;;;;4968482;28;19930;-63
2024/02/15 06:50:42;;;;;;;;;;;10.10;93.70;;;;;;4970320;28;20440;-63
2024/02/15 06:53:15;;;;;;;;;;;10.10;93.70;;;;;;4968417;28;20353;-62
2024/02/15 06:55:49;;;;;;;;;;;10.10;93.70;;;;;;4968021;28;20374;-60
2024/02/15 06:58:22;;;;;;;;;;;10.10;93.70;;;;;;4967216;28;19934;-62
2024/02/15 07:00:55;;;;;;;;;;;10.10;93.70;;;;;;4967752;28;19930;-62
2024/02/15 07:03:29;;;;;;;;;;;10.10;93.70;;;;;;4969046;28;20400;-61
2024/02/15 07:06:04;;;;;;;;;;;10.10;93.70;;;;;;4971568;28;20009;-63
2024/02/15 07:08:37;;;;;;;;;;;10.10;93.80;;;;;;4969934;28;20404;-62
2024/02/15 07:11:10;;;;;;;;;;;10.10;93.60;;;;;;4969634;28;19930;-62
2024/02/15 07:13:43;;;;;;;;;;;10.10;93.70;;;;;;4968577;28;19936;-62
2024/02/15 07:16:17;;;;;;;;;;;10.10;93.70;;;;;;4969512;28;20408;-61
2024/02/15 07:18:50;;;;;;;;;;;10.10;93.70;;;;;;4970788;28;19985;-62
2024/02/15 07:21:26;;;;;;;;;;;10.10;93.70;;;;;;4967614;28;20377;-63
2024/02/15 07:24:26;;;;;;;;;;;10.10;93.80;;;;;;4970286;28;19933;-64
2024/02/15 07:26:59;;;;;;;;;;;10.20;93.70;;;;;;4967432;28;19974;-59
2024/02/15 07:29:32;;;;;;;;;;;10.20;93.70;;;;;;4968337;28;19930;-60
2024/02/15 07:32:06;;;;;;;;;;;10.20;93.70;;;;;;4966328;28;19926;-60
2024/02/15 07:34:41;;;;;;;;;;;10.20;93.60;;;;;;4969582;28;19933;-60
2024/02/15 07:37:16;;;;;;;;;;;10.20;93.40;;;;;;4967808;28;19930;-60
2024/02/15 07:39:49;;;;;;;;;;;10.30;93.50;;;;;;4968982;28;19937;-60
2024/02/15 07:42:25;;;;;;;;;;;10.40;93.60;;;;;;4970420;28;20389;-61
2024/02/15 07:44:58;;;;;;;;;;;10.40;93.70;;;;;;4961526;28;19936;-60
2024/02/15 07:47:32;;;;;;;;;;;10.40;93.70;;;;;;4966091;28;19930;-60
2024/02/15 07:50:05;;;;;;;;;;;10.40;93.60;;;;;;4969872;28;20029;-60
2024/02/15 07:53:06;;;;;;;;;;;10.40;93.50;;;;;;4968549;28;19925;-61
2024/02/15 07:55:55;;;;;;;;;;;10.50;93.70;;;;;;4967793;28;25386;-60
2024/02/15 07:58:35;;;;;;;;;;;10.40;93.50;;;;;;4969010;28;19930;-61
2024/02/15 08:01:09;;;;;;;;;;;10.50;93.60;;;;;;4968126;28;19926;-61
2024/02/15 08:03:45;;;;;;;;;;;10.60;93.70;;;;;;4962013;28;20013;-61
2024/02/15 08:06:18;;;;;;;;;;;10.60;93.50;;;;;;4967377;28;20374;-61
2024/02/15 08:08:58;;;;;;;;;;;10.60;93.50;;;;;;4969662;28;19934;-61
2024/02/15 08:11:33;;;;;;;;;;;10.60;93.50;;;;;;4969791;28;19985;-62
2024/02/15 08:14:09;;;;;;;;;;;10.60;93.60;;;;;;4964345;28;19965;-60
2024/02/15 08:16:42;;;;;;;;;;;10.70;93.60;;;;;;4969116;28;20389;-61
2024/02/15 08:19:15;;;;;;;;;;;10.70;93.70;;;;;;4969894;28;19930;-61
2024/02/15 08:21:50;;;;;;;;;;;10.70;93.60;;;;;;4966359;28;19973;-62
2024/02/15 08:24:24;;;;;;;;;;;10.70;93.60;;;;;;4969074;28;19926;-61
2024/02/15 08:27:00;;;;;;;;;;;10.80;93.70;;;;;;4969217;28;19958;-60
2024/02/15 08:29:33;;;;;;;;;;;10.90;93.70;;;;;;4967945;28;20009;-60
2024/02/15 08:32:07;;;;;;;;;;;10.90;93.70;;;;;;4967052;28;19933;-61
2024/02/15 08:34:40;;;;;;;;;;;10.90;93.70;;;;;;4961114;28;19965;-60
2024/02/15 08:37:13;;;;;;;;;;;11.00;93.80;;;;;;4966085;28;20378;-60
2024/02/15 08:39:53;;;;;;;;;;;11.00;93.60;;;;;;4969663;28;19927;-59
2024/02/15 08:42:28;;;;;;;;;;;11.10;93.70;;;;;;4967589;28;20504;-59
2024/02/15 08:45:02;;;;;;;;;;;11.10;93.80;;;;;;4964757;28;19938;-60
2024/02/15 08:47:37;;;;;;;;;;;11.20;93.60;;;;;;4965969;28;19930;-60
2024/02/15 08:50:11;;;;;;;;;;;11.20;93.70;;;;;;4966475;28;19937;-61
2024/02/15 08:52:44;;;;;;;;;;;11.20;93.70;;;;;;4967102;28;19926;-60
2024/02/15 08:55:20;;;;;;;;;;;11.20;93.70;;;;;;4966009;28;19937;-59
2024/02/15 08:57:55;;;;;;;;;;;11.20;93.60;;;;;;4965023;28;19929;-59
2024/02/15 09:00:29;;;;;;;;;;;11.20;93.60;;;;;;4963600;28;19942;-59
2024/02/15 09:03:08;;;;;;;;;;;11.30;93.70;;;;;;4965770;28;19930;-60
2024/02/15 09:05:42;;;;;;;;;;;11.30;93.60;;;;;;4966209;28;19981;-59
2024/02/15 09:08:20;;;;;;;;;;;11.40;93.60;;;;;;4964345;28;19934;-59
2024/02/15 09:10:54;;;;;;;;;;;11.40;93.40;;;;;;4969387;28;19933;-59
2024/02/15 09:13:37;;;;;;;;;;;11.50;93.30;;;;;;4963627;28;19930;-60
2024/02/15 09:16:36;;;;;;;;;;;11.50;93.30;;;;;;4960703;28;19936;-60
2024/02/15 09:19:09;;;;;;;;;;;11.60;93.10;;;;;;4967660;28;19931;-59
2024/02/15 09:21:42;;;;;;;;;;;11.70;93.20;;;;;;4966965;28;20503;-59
2024/02/15 09:24:16;;;;;;;;;;;11.70;93.20;;;;;;4965054;28;19941;-59
2024/02/15 09:26:49;;;;;;;;;;;11.80;93.10;;;;;;4966852;28;19933;-59
2024/02/15 09:29:24;;;;;;;;;;;11.90;93.10;;;;;;4967842;28;19961;-60
2024/02/15 09:31:57;;;;;;;;;;;11.90;93.20;;;;;;4980019;28;19930;-59
2024/02/15 09:34:31;;;;;;;;;;;12.00;93.00;;;;;;4975204;28;20432;-60
2024/02/15 09:37:05;;;;;;;;;;;12.00;92.90;;;;;;4970108;28;19930;-59
2024/02/15 09:39:38;;;;;;;;;;;12.10;92.80;;;;;;4966404;28;19937;-59
2024/02/15 09:42:11;;;;;;;;;;;12.20;92.70;;;;;;4967011;28;19942;-59
2024/02/15 09:44:46;;;;;;;;;;;12.20;92.60;;;;;;4963162;28;19949;-60
2024/02/15 09:47:20;;;;;;;;;;;12.30;92.50;;;;;;4964725;28;19965;-61
2024/02/15 09:49:53;;;;;;;;;;;12.40;92.40;;;;;;4968306;28;19927;-61
2024/02/15 09:52:27;;;;;;;;;;;12.40;92.40;;;;;;4967782;28;20001;-61
2024/02/15 09:55:01;;;;;;;;;;;12.40;92.30;;;;;;4965202;28;19937;-66
2024/02/15 09:57:35;;;;;;;;;;;12.50;92.30;;;;;;4966574;28;19977;-61
2024/02/15 10:00:13;;;;;;;;;;;12.60;92.40;;;;;;4959664;28;20017;-62
2024/02/15 10:02:48;;;;;;;;;;;12.60;92.20;;;;;;4966033;28;19934;-61
2024/02/15 10:05:22;;;;;;;;;;;12.60;92.20;;;;;;4964707;28;20397;-60
2024/02/15 10:07:55;;;;;;;;;;;12.60;92.10;;;;;;4966867;28;20390;-65
2024/02/15 10:10:35;;;;;;;;;;;12.60;91.70;;;;;;4970451;28;20452;-61
2024/02/15 10:13:13;;;;;;;;;;;12.60;91.70;;;;;;4970540;28;19977;-60
2024/02/15 10:15:55;;;;;;;;;;;12.70;91.60;;;;;;4968288;28;19934;-60
2024/02/15 10:18:29;;;;;;;;;;;12.90;91.50;;;;;;4969888;28;19933;-61
2024/02/15 10:21:02;;;;;;;;;;;12.90;91.50;;;;;;4971877;28;19926;-60
2024/02/15 10:23:35;;;;;;;;;;;13.00;91.50;;;;;;4971117;28;19926;-60
2024/02/15 10:26:22;;;;;;;;;;;13.10;91.20;;;;;;4971379;28;19930;-61
2024/02/15 10:29:11;;;;;;;;;;;13.20;90.90;;;;;;4966854;28;19934;-61
2024/02/15 10:31:54;;;;;;;;;;;13.30;91.00;;;;;;4971115;28;19930;-60
2024/02/15 10:34:28;;;;;;;;;;;13.30;90.80;;;;;;4970660;28;19926;-61
2024/02/15 10:37:11;;;;;;;;;;;13.40;90.70;;;;;;4969645;28;19934;-61
2024/02/15 10:39:45;;;;;;;;;;;13.40;90.40;;;;;;4971189;28;19937;-60
2024/02/15 10:42:19;;;;;;;;;;;13.50;90.70;;;;;;4972338;28;20289;-60
2024/02/15 10:44:47;;;;;;;;;;;13.50;90.50;;;;;;4969522;28;19930;-61
2024/02/15 10:47:22;;;;;;;;;;;13.60;90.30;;;;;;4973148;28;19934;-60
2024/02/15 10:49:56;;;;;;;;;;;13.60;90.00;;;;;;4969832;28;20000;-61
2024/02/15 10:52:32;;;;;;;;;;;13.60;89.80;;;;;;4966065;28;19945;-61
2024/02/15 10:55:08;;;;;;;;;;;13.70;89.80;;;;;;4968349;28;19977;-72
2024/02/15 10:57:45;;;;;;;;;;;13.70;89.80;;;;;;4968597;28;19977;-71
2024/02/15 11:00:21;;;;;;;;;;;13.70;89.60;;;;;;4968143;28;19934;-71
2024/02/15 11:03:26;;;;;;;;;;;13.70;89.60;;;;;;4970450;28;19936;-72
2024/02/15 11:06:01;;;;;;;;;;;13.70;89.20;;;;;;4970307;28;20305;-72
2024/02/15 11:08:35;;;;;;;;;;;13.70;89.10;;;;;;4971017;28;20543;-72
2024/02/15 11:11:11;;;;;;;;;;;13.70;89.40;;;;;;4970276;28;19933;-73
2024/02/15 11:13:44;;;;;;;;;;;13.70;89.30;;;;;;4968324;28;20288;-73
2024/02/15 11:16:34;;;;;;;;;;;13.80;88.90;;;;;;4968565;28;19930;-72
2024/02/15 11:19:10;;;;;;;;;;;13.80;88.70;;;;;;4968587;28;19981;-72
2024/02/15 11:21:54;;;;;;;;;;;13.90;88.70;;;;;;4962831;28;19930;-74
2024/02/15 11:24:27;;;;;;;;;;;13.90;88.70;;;;;;4967298;28;20270;-72
2024/02/15 11:27:03;;;;;;;;;;;14.10;88.20;;;;;;4971389;28;20021;-72
2024/02/15 11:29:51;;;;;;;;;;;14.20;88.00;;;;;;4969491;28;20434;-72
2024/02/15 11:32:40;;;;;;;;;;;14.20;87.50;;;;;;4969920;28;20309;-72
2024/02/15 11:35:16;;;;;;;;;;;14.30;87.40;;;;;;4970723;28;19930;-72
2024/02/15 11:38:04;;;;;;;;;;;14.30;87.00;;;;;;4969053;28;19933;-71
2024/02/15 11:40:52;;;;;;;;;;;14.40;86.70;;;;;;4965393;28;20377;-72
2024/02/15 11:43:45;;;;;;;;;;;14.40;87.10;;;;;;4966233;28;19938;-70
2024/02/15 11:46:19;;;;;;;;;;;14.40;87.00;;;;;;4966228;28;20399;-72
2024/02/15 11:48:53;;;;;;;;;;;14.50;87.20;;;;;;4964092;28;20564;-70
2024/02/15 11:51:31;;;;;;;;;;;14.60;87.00;;;;;;4965697;28;20041;-71
2024/02/15 11:54:06;;;;;;;;;;;14.70;86.90;;;;;;4966729;28;19932;-72
2024/02/15 11:56:54;;;;;;;;;;;14.70;86.80;;;;;;4968027;28;19926;-73
2024/02/15 11:59:32;;;;;;;;;;;14.70;86.70;;;;;;4968292;28;19926;-72
2024/02/15 12:19:13;;;;;;;;;;;14.80;84.40;;;;;;4966643;28;19981;-62
2024/02/15 12:21:46;;;;;;;;;;;14.90;84.50;;;;;;4965498;28;19926;-60
2024/02/15 12:24:21;;;;;;;;;;;14.90;83.30;;;;;;4974595;28;20345;-60
2024/02/15 12:27:00;;;;;;;;;;;14.90;82.80;;;;;;4968877;28;20361;-60
2024/02/15 12:29:35;;;;;;;;;;;14.90;83.80;;;;;;4964728;28;20410;-61
2024/02/15 12:32:07;;;;;;;;;;;14.90;84.50;;;;;;4965204;28;19934;-60
2024/02/15 12:34:41;;;;;;;;;;;14.90;84.60;;;;;;4968939;28;19932;-63
2024/02/15 12:37:14;;;;;;;;;;;15.00;83.70;;;;;;4966747;28;20289;-60
2024/02/15 12:39:49;;;;;;;;;;;15.00;83.70;;;;;;4967797;28;19930;-61
2024/02/15 12:42:22;;;;;;;;;;;15.00;83.60;;;;;;4963407;28;19963;-61
2024/02/15 12:44:56;;;;;;;;;;;15.00;83.30;;;;;;4965839;28;19930;-62
2024/02/15 12:47:31;;;;;;;;;;;15.00;82.90;;;;;;4963304;28;19941;-61
2024/02/15 12:50:14;;;;;;;;;;;15.10;82.90;;;;;;4962029;28;20004;-62
2024/02/15 12:52:47;;;;;;;;;;;15.10;82.60;;;;;;4962018;28;20016;-61
2024/02/15 12:55:25;;;;;;;;;;;15.00;82.60;;;;;;4968147;28;20473;-60
2024/02/15 12:57:58;;;;;;;;;;;15.00;83.50;;;;;;4964308;28;19934;-62
2024/02/15 13:00:32;;;;;;;;;;;15.00;83.70;;;;;;4967208;28;19926;-61
2024/02/15 13:03:03;;;;;;;;;;;15.00;83.60;;;;;;4962610;28;20377;-62
2024/02/15 13:05:36;;;;;;;;;;;15.00;82.80;;;;;;4966436;28;19937;-61
2024/02/15 13:08:13;;;;;;;;;;;15.00;81.90;;;;;;4965759;28;19930;-61
2024/02/15 13:10:47;;;;;;;;;;;15.00;81.80;;;;;;4965171;28;20013;-61
2024/02/15 13:13:15;;;;;;;;;;;15.00;82.90;;;;;;4966887;28;19973;-63
2024/02/15 13:15:48;;;;;;;;;;;14.90;83.50;;;;;;4963531;28;19932;-62
2024/02/15 13:18:21;;;;;;;;;;;14.90;83.10;;;;;;4964740;28;19940;-62
2024/02/15 13:20:55;;;;;;;;;;;14.90;83.50;;;;;;4965871;28;19930;-61
2024/02/15 13:23:30;;;;;;;;;;;14.90;82.40;;;;;;4968687;28;20021;-63
2024/02/15 13:26:05;;;;;;;;;;;14.90;83.10;;;;;;4968483;28;20487;-63
2024/02/15 13:28:39;;;;;;;;;;;14.90;82.30;;;;;;4965141;28;19930;-62
2024/02/15 13:31:13;;;;;;;;;;;14.90;82.90;;;;;;4962023;28;19966;-62
2024/02/15 13:33:47;;;;;;;;;;;14.80;82.60;;;;;;4967366;28;19930;-64
2024/02/15 13:36:19;;;;;;;;;;;14.80;83.20;;;;;;4967937;28;19930;-62
2024/02/15 13:38:52;;;;;;;;;;;14.80;82.90;;;;;;4969367;28;19933;-62
2024/02/15 13:41:27;;;;;;;;;;;14.80;82.90;;;;;;4968083;28;19937;-62
2024/02/15 13:44:01;;;;;;;;;;;14.70;83.10;;;;;;4965589;28;19940;-63
2024/02/15 13:46:33;;;;;;;;;;;14.70;83.00;;;;;;4965431;28;20393;-63
2024/02/15 13:49:06;;;;;;;;;;;14.80;83.70;;;;;;4973176;28;19936;-62
2024/02/15 13:51:41;;;;;;;;;;;14.70;82.80;;;;;;4969160;28;19930;-63
2024/02/15 13:54:13;;;;;;;;;;;14.80;83.40;;;;;;4972985;28;19930;-62
2024/02/15 13:56:48;;;;;;;;;;;14.70;83.20;;;;;;4970658;28;20406;-62
2024/02/15 13:59:15;;;;;;;;;;;14.70;83.80;;;;;;4968365;28;19934;-61
2024/02/15 14:01:48;;;;;;;;;;;14.70;83.10;;;;;;4967042;28;19972;-64
2024/02/15 14:04:22;;;;;;;;;;;14.60;83.00;;;;;;4967109;28;20332;-62
2024/02/15 14:06:56;;;;;;;;;;;14.70;83.20;;;;;;4964576;28;20012;-62
2024/02/15 14:09:30;;;;;;;;;;;14.70;83.60;;;;;;4964606;28;20389;-62
2024/02/15 14:12:05;;;;;;;;;;;14.60;82.80;;;;;;4959189;28;19934;-61
2024/02/15 14:14:40;;;;;;;;;;;14.60;82.70;;;;;;4963715;28;19938;-62
2024/02/15 14:17:14;;;;;;;;;;;14.70;82.50;;;;;;4962014;28;19926;-62
2024/02/15 14:19:47;;;;;;;;;;;14.70;83.50;;;;;;4962992;28;19926;-62
2024/02/15 14:22:44;;;;;;;;;;;14.70;83.20;;;;;;4965201;28;20025;-63
2024/02/15 14:25:44;;;;;;;;;;;14.60;82.80;;;;;;4961180;28;20412;-65
2024/02/15 14:28:19;;;;;;;;;;;14.60;83.20;;;;;;4956897;28;19930;-65
2024/02/15 14:33:43;;;;;;;;;;;14.60;83.80;;;;;;4965155;28;19937;-65
2024/02/15 14:36:17;;;;;;;;;;;14.60;83.00;;;;;;4957797;28;20342;-66
2024/02/15 14:38:56;;;;;;;;;;;14.60;83.60;;;;;;4970291;28;19926;-66
2024/02/15 14:41:30;;;;;;;;;;;14.60;83.10;;;;;;4963411;28;20381;-67
2024/02/15 14:44:06;;;;;;;;;;;14.60;84.00;;;;;;4969039;28;19932;-66
2024/02/15 14:46:40;;;;;;;;;;;14.60;83.80;;;;;;4970649;28;19948;-66
2024/02/15 14:49:22;;;;;;;;;;;14.60;83.80;;;;;;4968693;28;20506;-66
2024/02/15 14:52:05;;;;;;;;;;;14.60;84.20;;;;;;4968542;28;19930;-64
2024/02/15 14:54:39;;;;;;;;;;;14.60;83.80;;;;;;4970902;28;19926;-65
2024/02/15 14:57:12;;;;;;;;;;;14.60;84.40;;;;;;4969091;28;19926;-67
2024/02/15 14:59:48;;;;;;;;;;;14.60;84.40;;;;;;4964062;28;19926;-66
2024/02/15 15:02:20;;;;;;;;;;;14.60;84.50;;;;;;4978820;28;20300;-66
2024/02/15 15:12:36;;;;;;;;;;;14.60;84.30;;;;;;4962460;28;20285;-66
2024/02/15 15:13:34;;;;;;;;;;;14.60;84.30;;;;;;4970336;28;19930;-66
2024/02/15 15:16:14;;;;;;;;;;;14.60;84.20;;;;;;4985451;28;19927;-65
2024/02/15 15:18:47;;;;;;;;;;;14.60;84.60;;;;;;4970364;28;19937;-67
2024/02/15 15:21:21;;;;;;;;;;;14.60;84.50;;;;;;4970098;28;19937;-66
2024/02/15 15:23:54;;;;;;;;;;;14.50;84.10;;;;;;4971671;28;19930;-65
2024/02/15 15:26:26;;;;;;;;;;;14.60;84.50;;;;;;4970768;28;20436;-66
2024/02/15 15:29:00;;;;;;;;;;;14.50;83.80;;;;;;4970905;28;19940;-66
2024/02/15 15:31:35;;;;;;;;;;;14.40;84.10;;;;;;4965571;28;20274;-66
2024/02/15 15:34:01;;;;;;;;;;;14.40;84.20;;;;;;4969410;28;20038;-63
2024/02/15 15:36:34;;;;;;;;;;;14.40;84.30;;;;;;4969282;28;19926;-61
2024/02/15 15:39:10;;;;;;;;;;;14.30;84.20;;;;;;4969735;28;19933;-63
2024/02/15 15:41:44;;;;;;;;;;;14.30;84.30;;;;;;4969414;28;20302;-62